Holloman Air Force Base
KHMN : rendu visible

Aérodrome :











RETROUVEZ-NOUS SUR...

 
LOGIN :

S'inscrire | Disclaimer

   EN    FR    IT 

 









Légende :    VFR   VFR Marginal   IFR   IFR Intensif   IFR Très Intensif
Visi : 
Plafond : 
>= 8 km
>= 3000ft
5 à 8 km
1000 à 3000 ft
1500m à 5 km
500 à 1000 ft
800 à 1500m
200 à 500 ft
< 800m
< 200 ft
Symboles :   Orages  Brouillard  Fortes neiges  Fortes précipitations  Vent > 20 kt






- Altitude de l'aérodrome : 4093 ft


KHMN - Holloman Air Force Base

DERNIER METAR :
  • 151558Z AUTO 14012KT 10SM CLR 14/03 A2985 RMK AO2 SLP065 T01440029 $

METARs EXPIRÉS :
  • 151458Z AUTO 13017KT 10SM BKN210 12/02 A2983 RMK AO2 SLP058 T01170024 52013 $
  • 151358Z AUTO 12003KT 10SM OVC200 10/02 A2983 RMK AO2 SLP061 T01030019 $
  • 151258Z AUTO 10006KT 10SM BKN150 10/02 A2981 RMK AO2 SLP054 T01010017 $

Prévision TAF périmée.



MET'MAP, la Météo Aéronautique d'un coup d'oeil ! - Copyright ORBIFLY Décembre 2007 - Disclaimer

ORBIFLY MET'MAP TEAM :

Programmation & Développement : Alexandra Zaïnal
Sur une idée originale de : Baudouin d'Aumeries
Assistance à la programmation : Marc-Olivier Méhu
Soutien technique & logistique : Manuel Goepfert

Contact : metmap@orbifly.com




SOURCES & CREDITS :

   NOAA       Earth
Advisory